createdAt,value
2023-05-17T00:01:48.444Z,19.50
2023-05-17T00:04:15.149Z,19.50
2023-05-17T00:06:41.872Z,19.50
2023-05-17T00:09:08.998Z,19.50
2023-05-17T00:11:35.767Z,19.50
2023-05-17T00:14:02.471Z,19.40
2023-05-17T00:16:29.097Z,19.40
2023-05-17T00:18:55.953Z,19.40
2023-05-17T00:21:22.616Z,19.40
2023-05-17T00:23:49.215Z,19.40
2023-05-17T00:26:15.877Z,19.40
2023-05-17T00:28:42.457Z,19.40
2023-05-17T00:31:09.078Z,19.40
2023-05-17T00:33:35.721Z,19.50
2023-05-17T00:36:02.325Z,19.50
2023-05-17T00:38:29.163Z,19.80
2023-05-17T00:40:55.800Z,19.40
2023-05-17T00:43:22.684Z,19.40
2023-05-17T00:45:50.303Z,19.40
2023-05-17T00:48:17.192Z,19.50
2023-05-17T00:50:44.068Z,19.40
2023-05-17T00:53:16.109Z,19.50
2023-05-17T00:55:43.672Z,19.60
2023-05-17T00:58:11.419Z,19.40
2023-05-17T01:00:38.150Z,19.40
2023-05-17T01:03:04.997Z,19.40
2023-05-17T01:05:31.748Z,19.50
2023-05-17T01:07:58.441Z,19.50
2023-05-17T01:10:28.330Z,19.50
2023-05-17T01:12:58.501Z,19.40
2023-05-17T01:15:31.642Z,19.40
2023-05-17T01:18:06.937Z,19.40
2023-05-17T01:20:38.017Z,19.40
2023-05-17T01:23:11.579Z,19.40
2023-05-17T01:25:56.979Z,19.30
2023-05-17T01:28:24.503Z,19.30
2023-05-17T01:30:51.752Z,19.40
2023-05-17T01:33:19.635Z,19.40
2023-05-17T01:35:46.408Z,19.40
2023-05-17T01:38:13.062Z,19.40
2023-05-17T01:40:44.531Z,19.80
2023-05-17T01:43:26.456Z,19.70
2023-05-17T01:46:11.723Z,19.40
2023-05-17T01:48:40.889Z,19.40
2023-05-17T01:51:09.377Z,19.40
2023-05-17T01:53:43.192Z,19.40
2023-05-17T01:56:13.494Z,19.30
2023-05-17T01:58:45.846Z,19.30
2023-05-17T02:01:14.541Z,19.30
2023-05-17T02:03:41.330Z,19.30
2023-05-17T02:06:08.057Z,19.30
2023-05-17T02:08:34.736Z,19.40
2023-05-17T02:11:01.325Z,19.40
2023-05-17T02:13:28.061Z,19.40
2023-05-17T02:15:54.688Z,19.40
2023-05-17T02:18:21.990Z,19.40
2023-05-17T02:20:48.888Z,19.40
2023-05-17T02:23:15.529Z,19.40
2023-05-17T02:25:42.133Z,19.30
2023-05-17T02:28:08.729Z,19.30
2023-05-17T02:30:35.482Z,19.30
2023-05-17T02:33:02.158Z,19.90
2023-05-17T02:35:29.118Z,19.70
2023-05-17T02:37:56.048Z,19.40
2023-05-17T02:40:22.688Z,19.40
2023-05-17T02:42:49.353Z,19.80
2023-05-17T02:45:16.141Z,19.50
2023-05-17T02:47:42.935Z,19.50
2023-05-17T02:50:10.141Z,19.60
2023-05-17T02:52:36.752Z,19.60
2023-05-17T02:55:04.475Z,19.50
2023-05-17T02:57:31.077Z,19.50
2023-05-17T02:59:57.916Z,19.60
2023-05-17T03:02:24.648Z,19.50
2023-05-17T03:04:51.417Z,19.50
2023-05-17T03:07:18.176Z,19.00
2023-05-17T03:09:44.919Z,19.40
2023-05-17T03:12:11.621Z,19.50
2023-05-17T03:14:38.223Z,19.40
2023-05-17T03:17:05.028Z,19.40
2023-05-17T03:19:31.725Z,19.40
2023-05-17T03:21:58.394Z,19.60
2023-05-17T03:24:25.005Z,19.60
2023-05-17T03:26:51.638Z,19.60
2023-05-17T03:29:18.331Z,19.40
2023-05-17T03:31:44.947Z,19.60
2023-05-17T03:34:11.652Z,19.30
2023-05-17T03:36:39.620Z,19.60
2023-05-17T03:39:06.274Z,19.30
2023-05-17T03:41:32.932Z,19.30
2023-05-17T03:43:59.516Z,19.50
2023-05-17T03:46:26.104Z,19.30
2023-05-17T03:48:52.706Z,19.40
2023-05-17T03:51:19.376Z,19.40
2023-05-17T03:53:46.119Z,19.40
2023-05-17T03:56:12.849Z,19.40
2023-05-17T03:58:39.548Z,19.40
2023-05-17T04:01:06.736Z,19.40
2023-05-17T04:03:33.463Z,19.50
2023-05-17T04:06:06.232Z,19.30
2023-05-17T04:08:33.845Z,19.30
2023-05-17T04:11:01.545Z,19.30
2023-05-17T04:13:28.180Z,19.30
2023-05-17T04:15:54.787Z,19.30
2023-05-17T04:18:21.456Z,19.40
2023-05-17T04:20:48.108Z,19.30
2023-05-17T04:23:14.722Z,19.30
2023-05-17T04:25:41.345Z,19.40
2023-05-17T04:28:07.962Z,19.40
2023-05-17T04:30:34.671Z,19.40
2023-05-17T04:33:01.385Z,19.40
2023-05-17T04:35:28.283Z,19.60
2023-05-17T04:37:55.065Z,19.30
2023-05-17T04:40:21.812Z,19.40
2023-05-17T04:42:48.718Z,19.50
2023-05-17T04:45:16.176Z,19.40
2023-05-17T04:47:43.735Z,19.30
2023-05-17T04:50:10.681Z,19.30
2023-05-17T04:52:37.292Z,19.30
2023-05-17T04:55:05.234Z,19.40
2023-05-17T04:57:31.883Z,19.40
2023-05-17T04:59:58.509Z,19.40
2023-05-17T05:02:25.219Z,19.40
2023-05-17T05:04:52.206Z,19.40
2023-05-17T05:07:18.863Z,19.40
2023-05-17T05:09:45.509Z,19.40
2023-05-17T05:12:12.171Z,19.50
2023-05-17T05:14:38.812Z,19.40
2023-05-17T05:17:05.663Z,19.60
2023-05-17T05:19:32.463Z,19.40
2023-05-17T05:21:59.124Z,19.40
2023-05-17T05:24:25.728Z,19.40
2023-05-17T05:26:52.417Z,20.00
2023-05-17T05:29:19.206Z,19.40
2023-05-17T05:31:46.350Z,19.50
2023-05-17T05:34:13.432Z,19.40
2023-05-17T05:36:40.119Z,19.60
2023-05-17T05:39:09.011Z,19.40
2023-05-17T05:41:36.071Z,19.50
2023-05-17T05:44:02.763Z,19.40
2023-05-17T05:46:29.496Z,19.50
2023-05-17T05:48:56.217Z,19.60
2023-05-17T05:51:23.005Z,19.60
2023-05-17T05:53:49.892Z,20.20
2023-05-17T05:56:16.563Z,19.70
2023-05-17T05:58:43.181Z,19.70
2023-05-17T06:01:09.812Z,19.90
2023-05-17T06:03:37.136Z,19.70
2023-05-17T06:06:04.122Z,19.70
2023-05-17T06:08:30.861Z,19.80
2023-05-17T06:10:57.526Z,19.80
2023-05-17T06:13:24.147Z,20.10
2023-05-17T06:15:51.188Z,20.30
2023-05-17T06:18:17.865Z,19.70
2023-05-17T06:20:44.592Z,19.60
2023-05-17T06:23:11.180Z,19.60
2023-05-17T06:25:37.893Z,19.60
2023-05-17T06:28:04.753Z,20.30
2023-05-17T06:30:31.709Z,19.60
2023-05-17T06:32:58.764Z,19.60
2023-05-17T06:35:25.592Z,19.70
2023-05-17T06:37:52.228Z,19.60
2023-05-17T06:40:18.853Z,19.60
2023-05-17T06:42:45.557Z,19.80
2023-05-17T06:45:12.315Z,19.60
2023-05-17T06:47:39.138Z,19.60
2023-05-17T06:50:06.841Z,19.50
2023-05-17T06:52:33.517Z,19.60
2023-05-17T06:55:00.199Z,19.60
2023-05-17T06:57:26.828Z,19.60
2023-05-17T06:59:53.569Z,19.70
2023-05-17T07:02:20.349Z,19.60
2023-05-17T07:04:47.112Z,19.60
2023-05-17T07:07:14.237Z,19.60
2023-05-17T07:09:41.364Z,19.90
2023-05-17T07:12:08.019Z,19.60
2023-05-17T07:14:34.680Z,19.60
2023-05-17T07:17:01.568Z,19.60
2023-05-17T07:19:28.293Z,19.60
2023-05-17T07:21:54.991Z,19.60
2023-05-17T07:24:21.612Z,19.50
2023-05-17T07:26:49.762Z,19.50
2023-05-17T07:29:17.728Z,19.50
2023-05-17T07:31:44.394Z,19.50
2023-05-17T07:34:12.126Z,19.50
2023-05-17T07:36:38.954Z,19.70
2023-05-17T07:39:05.667Z,19.60
2023-05-17T07:41:33.849Z,19.60
2023-05-17T07:44:00.628Z,19.60
2023-05-17T07:46:27.370Z,19.60
2023-05-17T07:48:58.129Z,19.60
2023-05-17T07:51:25.277Z,19.60
2023-05-17T07:53:51.889Z,19.30
2023-05-17T07:56:18.499Z,19.60
2023-05-17T07:58:45.080Z,19.60
2023-05-17T08:01:12.182Z,19.50
2023-05-17T08:03:39.621Z,19.60
2023-05-17T08:06:06.377Z,19.60
2023-05-17T08:08:59.487Z,19.60
2023-05-17T08:11:28.516Z,19.60
2023-05-17T08:13:55.271Z,19.60
2023-05-17T08:16:22.121Z,19.70
2023-05-17T08:18:49.166Z,19.60
2023-05-17T08:21:15.870Z,20.20
2023-05-17T08:23:42.545Z,19.60
2023-05-17T08:26:09.240Z,20.00
2023-05-17T08:28:36.016Z,19.60
2023-05-17T08:31:04.061Z,19.60
2023-05-17T08:33:31.069Z,19.60
2023-05-17T08:35:59.248Z,19.70
2023-05-17T08:38:54.140Z,19.60
2023-05-17T08:41:20.895Z,20.10
2023-05-17T08:43:49.055Z,19.90
2023-05-17T08:46:16.629Z,19.60
2023-05-17T08:48:44.724Z,19.70
2023-05-17T08:51:12.111Z,19.70
2023-05-17T08:53:38.863Z,19.80
2023-05-17T08:56:06.974Z,19.60
2023-05-17T08:58:51.738Z,19.50
2023-05-17T09:01:23.630Z,19.60
2023-05-17T09:03:52.880Z,20.40
2023-05-17T09:06:23.184Z,19.60
2023-05-17T09:08:52.677Z,19.60
2023-05-17T09:11:29.615Z,19.70
2023-05-17T09:14:15.244Z,19.60
2023-05-17T09:16:43.936Z,19.60
2023-05-17T09:19:14.321Z,19.50
2023-05-17T09:22:26.684Z,19.90
2023-05-17T09:24:53.345Z,19.30
2023-05-17T09:27:21.669Z,19.80
2023-05-17T09:29:48.576Z,20.00
2023-05-17T09:32:16.618Z,19.60
2023-05-17T09:34:47.132Z,19.90
2023-05-17T09:37:28.932Z,19.60
2023-05-17T09:39:55.773Z,19.60
2023-05-17T09:42:26.338Z,20.10
2023-05-17T09:44:57.477Z,19.80
2023-05-17T09:47:25.206Z,20.30
2023-05-17T09:49:52.245Z,20.30
2023-05-17T09:52:20.638Z,19.90
2023-05-17T09:54:54.558Z,20.20
2023-05-17T09:57:26.002Z,19.90
2023-05-17T09:59:55.885Z,19.70
2023-05-17T10:02:25.616Z,19.80
2023-05-17T10:04:52.569Z,19.90
2023-05-17T10:07:19.797Z,19.90
2023-05-17T10:09:47.593Z,19.90
2023-05-17T10:12:16.841Z,19.90
2023-05-17T10:14:43.767Z,19.80
2023-05-17T10:17:11.834Z,19.90
2023-05-17T10:19:38.997Z,19.80
2023-05-17T10:22:21.628Z,19.80
2023-05-17T10:24:51.200Z,19.70
2023-05-17T10:27:18.269Z,19.80
2023-05-17T10:29:47.664Z,19.90
2023-05-17T10:32:17.372Z,19.70
2023-05-17T10:34:45.819Z,19.70
2023-05-17T10:37:14.119Z,19.70
2023-05-17T10:39:43.643Z,19.90
2023-05-17T10:42:15.204Z,19.70
2023-05-17T10:44:42.730Z,19.70
2023-05-17T10:47:10.115Z,19.70
2023-05-17T10:49:37.825Z,19.70
2023-05-17T10:52:17.183Z,19.70
2023-05-17T10:54:44.661Z,19.70
2023-05-17T10:57:19.564Z,19.70
2023-05-17T10:59:56.347Z,19.60
2023-05-17T11:02:27.304Z,19.60
2023-05-17T11:04:56.139Z,19.60
2023-05-17T11:07:29.209Z,19.60
2023-05-17T11:10:14.196Z,19.70
2023-05-17T11:12:42.948Z,19.70
2023-05-17T11:15:10.865Z,20.00
2023-05-17T11:17:40.684Z,19.70
2023-05-17T11:23:05.378Z,19.70
2023-05-17T11:25:35.682Z,20.30
2023-05-17T11:28:09.737Z,19.70
2023-05-17T11:30:51.388Z,19.70
2023-05-17T11:33:29.818Z,19.70
2023-05-17T11:36:04.380Z,19.40
2023-05-17T11:38:32.438Z,19.60
2023-05-17T11:41:23.399Z,19.60
2023-05-17T11:43:53.404Z,19.60
2023-05-17T11:46:21.167Z,19.60
2023-05-17T11:48:50.144Z,19.60
2023-05-17T11:51:17.285Z,19.60
2023-05-17T11:53:44.416Z,19.70
2023-05-17T11:56:11.587Z,19.60
2023-05-17T11:58:38.793Z,19.60
2023-05-17T12:01:05.959Z,19.60
2023-05-17T12:03:33.526Z,19.60
2023-05-17T12:06:13.088Z,19.60
2023-05-17T12:08:40.254Z,19.50
2023-05-17T12:11:07.436Z,19.60
2023-05-17T12:13:35.136Z,19.70
2023-05-17T12:16:06.687Z,19.60
2023-05-17T12:18:40.508Z,19.60
2023-05-17T12:21:08.458Z,19.60
2023-05-17T12:23:43.534Z,19.60
2023-05-17T12:26:14.425Z,19.60
2023-05-17T12:28:54.855Z,19.60
2023-05-17T12:31:27.572Z,19.60
2023-05-17T12:33:54.547Z,19.60
2023-05-17T12:36:21.389Z,19.60
2023-05-17T12:38:48.132Z,19.60
2023-05-17T12:41:15.449Z,19.60
2023-05-17T12:43:43.798Z,19.60
2023-05-17T12:46:14.821Z,19.60
2023-05-17T12:48:42.152Z,19.60
2023-05-17T12:51:11.819Z,19.60
2023-05-17T12:53:42.454Z,19.70
2023-05-17T12:56:14.402Z,19.60
2023-05-17T12:58:41.017Z,19.60
2023-05-17T13:01:10.563Z,19.60
2023-05-17T13:03:37.367Z,19.60
2023-05-17T13:06:05.216Z,19.50
2023-05-17T13:08:32.811Z,19.60
2023-05-17T13:11:06.649Z,19.80
2023-05-17T13:13:33.625Z,19.60
2023-05-17T13:16:00.240Z,19.60
2023-05-17T13:18:27.073Z,19.60
2023-05-17T13:20:53.719Z,19.60
2023-05-17T13:23:20.388Z,19.60
2023-05-17T13:25:47.047Z,19.50
2023-05-17T13:28:13.664Z,19.60
2023-05-17T13:30:40.415Z,19.60
2023-05-17T13:33:07.093Z,19.60
2023-05-17T13:35:33.740Z,19.60
2023-05-17T13:38:00.521Z,19.70
2023-05-17T13:40:27.251Z,19.70
2023-05-17T13:42:53.927Z,19.80
2023-05-17T13:45:20.609Z,19.80
2023-05-17T13:47:47.742Z,19.90
2023-05-17T13:50:17.244Z,19.90
2023-05-17T13:52:44.489Z,19.80
2023-05-17T13:55:11.085Z,19.90
2023-05-17T13:57:37.735Z,19.90
2023-05-17T14:00:05.515Z,19.80
2023-05-17T14:02:32.218Z,19.80
2023-05-17T14:04:59.061Z,19.70
2023-05-17T14:07:25.679Z,19.70
2023-05-17T14:09:52.291Z,19.70
2023-05-17T14:12:18.917Z,19.70
2023-05-17T14:14:45.724Z,19.70
2023-05-17T14:17:12.744Z,19.70
2023-05-17T14:19:39.405Z,19.80
2023-05-17T14:22:06.096Z,19.80
2023-05-17T14:24:34.031Z,19.80
2023-05-17T14:27:02.537Z,19.80
2023-05-17T14:29:30.360Z,19.80
2023-05-17T14:31:57.006Z,19.80
2023-05-17T14:34:23.742Z,19.80
2023-05-17T14:36:51.374Z,19.70
2023-05-17T14:39:18.084Z,19.80
2023-05-17T14:41:45.142Z,19.70
2023-05-17T14:44:11.882Z,19.70
2023-05-17T14:46:38.480Z,19.70
2023-05-17T14:49:06.451Z,19.60
2023-05-17T14:51:33.104Z,19.80
2023-05-17T14:53:59.749Z,19.90
2023-05-17T14:56:26.402Z,19.60
2023-05-17T14:58:53.033Z,19.60
2023-05-17T15:01:19.880Z,19.60
2023-05-17T15:03:46.777Z,19.70
2023-05-17T15:06:13.752Z,19.60
2023-05-17T15:08:40.685Z,19.70
2023-05-17T15:11:07.311Z,19.70
2023-05-17T15:13:33.956Z,19.70
2023-05-17T15:16:02.004Z,19.70
2023-05-17T15:18:28.966Z,19.70
2023-05-17T15:20:55.707Z,19.70
2023-05-17T15:23:22.354Z,19.70
2023-05-17T15:25:48.965Z,19.70
2023-05-17T15:28:15.927Z,19.70
2023-05-17T15:30:42.632Z,19.70
2023-05-17T15:33:10.010Z,19.70
2023-05-17T15:35:40.076Z,19.70
2023-05-17T15:38:06.775Z,19.80
2023-05-17T15:40:34.177Z,19.70
2023-05-17T15:43:00.885Z,19.70
2023-05-17T15:45:27.857Z,19.70
2023-05-17T15:47:56.585Z,19.70
2023-05-17T15:50:23.243Z,19.70
2023-05-17T15:52:49.908Z,19.60
2023-05-17T15:55:16.594Z,19.60
2023-05-17T15:57:43.237Z,19.60
2023-05-17T16:00:10.358Z,19.60
2023-05-17T16:02:36.999Z,19.60
2023-05-17T16:05:04.236Z,19.60
2023-05-17T16:07:31.231Z,19.70
2023-05-17T16:09:57.901Z,19.90
2023-05-17T16:12:24.566Z,19.70
2023-05-17T16:14:51.183Z,19.70
2023-05-17T16:17:17.865Z,19.70
2023-05-17T16:19:44.510Z,19.70
2023-05-17T16:22:11.326Z,19.80
2023-05-17T16:24:38.113Z,19.70
2023-05-17T16:27:07.229Z,19.90
2023-05-17T16:29:39.768Z,19.70
2023-05-17T16:32:07.322Z,19.70
2023-05-17T16:34:34.020Z,19.70
2023-05-17T16:37:00.695Z,19.70
2023-05-17T16:39:28.704Z,19.60
2023-05-17T16:41:55.816Z,19.60
2023-05-17T16:44:22.468Z,19.60
2023-05-17T16:46:49.145Z,19.80
2023-05-17T16:49:15.927Z,19.70
2023-05-17T16:51:42.606Z,19.70
2023-05-17T16:54:09.506Z,20.00
2023-05-17T16:56:36.591Z,19.60
2023-05-17T16:59:03.325Z,19.60
2023-05-17T17:01:30.044Z,19.60
2023-05-17T17:03:56.810Z,19.60
2023-05-17T17:06:23.585Z,19.60
2023-05-17T17:08:50.480Z,19.70
2023-05-17T17:11:19.182Z,19.80
2023-05-17T17:13:46.139Z,19.60
2023-05-17T17:16:12.955Z,19.50
2023-05-17T17:18:39.647Z,20.00
2023-05-17T17:21:07.846Z,19.80
2023-05-17T17:23:34.838Z,19.70
2023-05-17T17:26:01.536Z,19.80
2023-05-17T17:28:28.185Z,20.40
2023-05-17T17:30:54.948Z,19.90
2023-05-17T17:33:21.655Z,19.90
2023-05-17T17:35:48.318Z,20.10
2023-05-17T17:38:14.928Z,20.20
2023-05-17T17:40:42.010Z,20.00
2023-05-17T17:43:08.642Z,20.10
2023-05-17T17:45:35.403Z,20.10
2023-05-17T17:48:02.370Z,20.10
2023-05-17T17:50:29.132Z,20.00
2023-05-17T17:52:56.045Z,20.00
2023-05-17T17:55:23.017Z,19.90
2023-05-17T17:57:50.555Z,19.90
2023-05-17T18:00:17.341Z,19.80
2023-05-17T18:02:43.949Z,19.90
2023-05-17T18:05:11.408Z,20.00
2023-05-17T18:07:38.295Z,19.70
2023-05-17T18:10:05.412Z,19.80
2023-05-17T18:12:32.061Z,19.80
2023-05-17T18:14:58.668Z,19.80
2023-05-17T18:17:25.477Z,19.80
2023-05-17T18:19:52.488Z,19.80
2023-05-17T18:22:19.139Z,19.70
2023-05-17T18:24:45.939Z,19.70
2023-05-17T18:27:14.080Z,19.70
2023-05-17T18:29:41.108Z,19.70
2023-05-17T18:32:08.330Z,19.70
2023-05-17T18:34:35.240Z,19.70
2023-05-17T18:37:02.103Z,19.70
2023-05-17T18:39:29.152Z,19.70
2023-05-17T18:41:55.797Z,19.70
2023-05-17T18:44:22.427Z,19.70
2023-05-17T18:46:49.643Z,19.70
2023-05-17T18:49:16.835Z,19.70
2023-05-17T18:51:43.688Z,19.60
2023-05-17T18:54:10.330Z,19.80
2023-05-17T18:56:37.032Z,19.60
2023-05-17T18:59:03.708Z,19.80
2023-05-17T19:01:30.514Z,19.60
2023-05-17T19:03:57.686Z,19.90
2023-05-17T19:06:25.092Z,19.60
2023-05-17T19:08:51.842Z,19.50
2023-05-17T19:11:18.443Z,19.60
2023-05-17T19:13:45.182Z,19.60
2023-05-17T19:16:11.889Z,19.60
2023-05-17T19:18:38.582Z,19.60
2023-05-17T19:21:05.239Z,19.60
2023-05-17T19:23:32.143Z,19.60
2023-05-17T19:25:58.975Z,19.60
2023-05-17T19:28:25.859Z,19.60
2023-05-17T19:30:52.511Z,19.60
2023-05-17T19:33:19.161Z,19.60
2023-05-17T19:35:46.448Z,19.80
2023-05-17T19:38:13.091Z,19.60
2023-05-17T19:40:40.837Z,19.60
2023-05-17T19:43:07.704Z,19.50
2023-05-17T19:45:34.345Z,19.50
2023-05-17T19:48:02.223Z,19.50
2023-05-17T19:50:29.672Z,19.50
2023-05-17T19:52:56.539Z,19.50
2023-05-17T19:55:24.633Z,19.60
2023-05-17T19:57:51.389Z,19.50
2023-05-17T20:00:18.152Z,19.50
2023-05-17T20:02:47.255Z,19.60
2023-05-17T20:05:14.544Z,19.90
2023-05-17T20:07:41.235Z,19.90
2023-05-17T20:10:08.069Z,19.80
2023-05-17T20:12:34.946Z,19.80
2023-05-17T20:15:01.635Z,19.90
2023-05-17T20:17:28.321Z,19.90
2023-05-17T20:19:54.979Z,19.90
2023-05-17T20:22:21.601Z,20.00
2023-05-17T20:24:48.258Z,19.80
2023-05-17T20:27:15.475Z,19.70
2023-05-17T20:29:42.438Z,19.50
2023-05-17T20:32:09.137Z,19.60
2023-05-17T20:34:35.828Z,19.60
2023-05-17T20:37:02.454Z,19.60
2023-05-17T20:39:30.835Z,19.90
2023-05-17T20:41:58.278Z,19.60
2023-05-17T20:44:25.703Z,19.60
2023-05-17T20:46:52.697Z,19.60
2023-05-17T20:49:19.335Z,19.50
2023-05-17T20:51:46.158Z,19.80
2023-05-17T20:54:12.953Z,19.60
2023-05-17T20:56:40.113Z,19.50
2023-05-17T20:59:06.894Z,19.50
2023-05-17T21:01:34.132Z,19.50
2023-05-17T21:04:01.403Z,19.50
2023-05-17T21:06:30.207Z,19.60
2023-05-17T21:09:02.157Z,19.60
2023-05-17T21:11:29.543Z,19.60
2023-05-17T21:13:57.903Z,19.50
2023-05-17T21:16:24.564Z,19.50
2023-05-17T21:18:51.321Z,19.60
2023-05-17T21:21:18.181Z,19.60
2023-05-17T21:23:44.848Z,19.50
2023-05-17T21:26:11.633Z,19.50
2023-05-17T21:28:38.237Z,19.70
2023-05-17T21:31:05.800Z,19.50
2023-05-17T21:33:32.894Z,19.60
2023-05-17T21:35:59.596Z,19.50
2023-05-17T21:38:26.220Z,19.50
2023-05-17T21:40:53.219Z,19.50
2023-05-17T21:43:19.869Z,19.60
2023-05-17T21:45:46.548Z,19.50
2023-05-17T21:48:13.275Z,19.50
2023-05-17T21:50:40.060Z,19.40
2023-05-17T21:53:06.770Z,19.50
2023-05-17T21:55:36.803Z,19.50
2023-05-17T21:58:13.050Z,19.50
2023-05-17T22:00:39.714Z,19.70
2023-05-17T22:03:06.831Z,19.40
2023-05-17T22:05:33.646Z,19.40
2023-05-17T22:08:00.498Z,19.40
2023-05-17T22:10:27.329Z,19.40
2023-05-17T22:12:54.348Z,19.40
2023-05-17T22:15:22.040Z,19.40
2023-05-17T22:17:52.834Z,19.40
2023-05-17T22:20:23.562Z,19.40
2023-05-17T22:22:50.446Z,19.40
2023-05-17T22:25:17.821Z,19.50
2023-05-17T22:27:45.405Z,19.40
2023-05-17T22:30:12.344Z,19.40
2023-05-17T22:32:40.242Z,19.40
2023-05-17T22:35:07.247Z,19.40
2023-05-17T22:37:33.916Z,19.40
2023-05-17T22:40:00.684Z,19.40
2023-05-17T22:42:27.346Z,19.40
2023-05-17T22:44:54.063Z,20.00
2023-05-17T22:47:23.148Z,19.40
2023-05-17T22:49:52.498Z,19.40
2023-05-17T22:52:19.893Z,19.40
2023-05-17T22:54:46.640Z,19.40
2023-05-17T22:57:13.366Z,19.40
2023-05-17T22:59:40.009Z,19.40
2023-05-17T23:02:06.779Z,19.40
2023-05-17T23:04:33.454Z,19.40
2023-05-17T23:07:02.202Z,19.30
2023-05-17T23:09:33.662Z,19.30
2023-05-17T23:12:05.485Z,19.30
2023-05-17T23:14:36.118Z,19.40
2023-05-17T23:17:03.986Z,19.40
2023-05-17T23:19:31.222Z,19.50
2023-05-17T23:22:02.674Z,19.50
2023-05-17T23:24:29.305Z,19.50
2023-05-17T23:26:56.045Z,19.50
2023-05-17T23:29:22.872Z,19.60
2023-05-17T23:31:50.663Z,19.60
2023-05-17T23:34:17.445Z,19.60
2023-05-17T23:36:44.033Z,19.70
2023-05-17T23:39:10.836Z,19.50
2023-05-17T23:41:37.767Z,19.50
2023-05-17T23:44:04.989Z,19.50
2023-05-17T23:46:31.706Z,19.40
2023-05-17T23:48:58.470Z,19.40
2023-05-17T23:51:25.103Z,19.40
2023-05-17T23:53:51.720Z,19.40
2023-05-17T23:56:19.053Z,19.50
2023-05-17T23:58:46.196Z,19.50
